Time;durP1;ratioP1;P1;durP2;ratioP2;P2;SDS_P1;SDS_P2;PMS_P1;PMS_P2;Temp;Humidity;BMP_temperature;BMP_pressure;BME280_temperature;BME280_humidity;BME280_pressure;Samples;Min_cycle;Max_cycle;Signal;HPM_P1;HPM_P2
2023/04/04 00:00:27;;;;;;;2.13;1.65;;;;;;;1.95;47.85;97439.91;6183062;23;20028;-78
2023/04/04 00:02:55;;;;;;;2.53;1.67;;;;;;;1.97;48.08;97448.34;6182965;23;20021;-78
2023/04/04 00:05:23;;;;;;;2.33;1.52;;;;;;;1.97;47.93;97440.63;6183673;23;20014;-78
2023/04/04 00:07:51;;;;;;;3.10;1.95;;;;;;;1.95;47.64;97431.38;6185216;23;20108;-78
2023/04/04 00:10:20;;;;;;;2.50;1.60;;;;;;;1.96;47.75;97433.00;6184617;23;20108;-78
2023/04/04 00:12:48;;;;;;;1.90;1.42;;;;;;;1.94;47.77;97422.81;6184021;23;20049;-79
2023/04/04 00:15:15;;;;;;;3.05;1.58;;;;;;;1.89;47.69;97430.03;6185053;23;20021;-78
2023/04/04 00:17:43;;;;;;;1.88;1.50;;;;;;;1.84;48.84;97427.78;6184728;23;20076;-78
2023/04/04 00:20:11;;;;;;;1.38;1.27;;;;;;;1.83;48.30;97430.47;6186114;23;20021;-78
2023/04/04 00:22:39;;;;;;;3.40;1.50;;;;;;;1.80;48.00;97420.41;6185142;23;20394;-78
2023/04/04 00:25:07;;;;;;;2.28;1.40;;;;;;;1.78;48.01;97417.09;6185684;23;20021;-78
2023/04/04 00:27:36;;;;;;;1.40;1.30;;;;;;;1.75;47.91;97414.72;6200490;23;20029;-78
2023/04/04 00:30:04;;;;;;;2.53;1.70;;;;;;;1.72;48.07;97414.97;6210069;23;20065;-78
2023/04/04 00:32:32;;;;;;;6.40;2.30;;;;;;;1.71;48.48;97414.16;6196675;23;20309;-78
2023/04/04 00:35:00;;;;;;;4.18;2.45;;;;;;;1.68;48.69;97410.94;6185296;23;20052;-78
2023/04/04 00:37:27;;;;;;;3.38;1.65;;;;;;;1.70;48.64;97412.47;6184931;23;20109;-78
2023/04/04 00:39:55;;;;;;;1.75;1.40;;;;;;;1.76;48.33;97413.81;6184719;23;20025;-78
2023/04/04 00:42:23;;;;;;;2.38;1.80;;;;;;;1.75;48.22;97404.44;6184694;23;20406;-77
2023/04/04 00:44:53;;;;;;;5.35;1.90;;;;;;;1.72;47.94;97407.25;6184540;23;20021;-78
2023/04/04 00:47:22;;;;;;;2.00;1.63;;;;;;;1.68;48.00;97410.94;6184072;23;20529;-78
2023/04/04 00:49:50;;;;;;;2.20;1.50;;;;;;;1.67;48.23;97404.19;6184949;23;20021;-78
2023/04/04 00:52:18;;;;;;;3.30;2.10;;;;;;;1.63;48.23;97399.22;6140227;23;1047115;-78
2023/04/04 00:54:45;;;;;;;3.38;2.55;;;;;;;1.63;48.35;97398.41;6185990;23;20036;-78
2023/04/04 00:57:13;;;;;;;1.95;1.63;;;;;;;1.63;48.35;97393.28;6186556;23;20052;-78
2023/04/04 00:59:42;;;;;;;1.60;1.40;;;;;;;1.63;48.23;97394.09;6186185;23;20024;-78
2023/04/04 01:02:11;;;;;;;3.38;1.63;;;;;;;1.64;48.27;97389.78;6185887;23;20522;-77
2023/04/04 01:04:38;;;;;;;2.30;1.80;;;;;;;1.59;48.37;97384.94;6186283;23;20028;-78
2023/04/04 01:07:06;;;;;;;7.70;2.92;;;;;;;1.56;48.23;97387.72;6186422;23;20105;-78
2023/04/04 01:09:34;;;;;;;3.60;1.58;;;;;;;1.57;48.53;97383.41;6186461;23;20021;-78
2023/04/04 01:12:02;;;;;;;1.73;1.52;;;;;;;1.56;48.26;97382.59;6185691;23;20025;-78
2023/04/04 01:14:30;;;;;;;1.85;1.50;;;;;;;1.55;48.48;97386.09;6186410;23;20021;-78
2023/04/04 01:17:01;;;;;;;3.08;1.63;;;;;;;1.54;48.53;97387.00;6185973;23;20027;-78
2023/04/04 01:19:33;;;;;;;2.38;1.58;;;;;;;1.50;48.57;97382.19;6186197;23;20017;-78
2023/04/04 01:22:02;;;;;;;2.08;1.67;;;;;;;1.47;48.33;97382.41;6185102;23;20104;-78
2023/04/04 01:24:35;;;;;;;2.42;2.03;;;;;;;1.43;48.28;97374.09;6186347;23;20032;-78
2023/04/04 01:27:03;;;;;;;;;;;;;;;1.42;48.57;97375.00;6186265;23;20017;-78
2023/04/04 01:29:31;;;;;;;5.05;1.70;;;;;;;1.33;48.47;97375.63;6185906;23;19930;-77
2023/04/04 01:32:08;;;;;;;3.35;1.88;;;;;;;1.27;48.81;97371.75;6185627;23;20021;-78
2023/04/04 01:34:44;;;;;;;4.57;1.85;;;;;;;1.27;49.12;97374.31;6186187;23;20040;-78
2023/04/04 01:37:24;;;;;;;1.90;1.65;;;;;;;1.31;50.75;97372.34;6185533;23;20021;-78
2023/04/04 01:39:56;;;;;;;6.20;1.98;;;;;;;1.29;49.04;97363.91;6185744;23;20027;-78
2023/04/04 01:42:26;;;;;;;2.22;1.60;;;;;;;1.26;49.33;97374.41;6186096;23;20021;-78
2023/04/04 01:44:54;;;;;;;2.13;1.42;;;;;;;1.26;48.86;97371.84;6185717;23;20173;-78
2023/04/04 01:47:22;;;;;;;2.42;1.60;;;;;;;1.24;49.11;97359.91;6185779;23;20075;-78
2023/04/04 01:49:52;;;;;;;1.90;1.67;;;;;;;1.28;49.17;97372.56;6185016;23;20032;-78
2023/04/04 01:52:20;;;;;;;3.03;1.80;;;;;;;1.23;48.93;97365.16;6187200;23;20024;-81
2023/04/04 01:54:49;;;;;;;3.08;1.95;;;;;;;1.21;49.23;97372.97;6206708;23;20044;-81
2023/04/04 01:57:18;;;;;;;2.13;1.65;;;;;;;1.19;49.20;97374.81;6206564;23;20013;-83
2023/04/04 01:59:56;;;;;;;3.58;1.92;;;;;;;1.17;49.76;97371.53;6205256;23;20017;-81
2023/04/04 02:02:30;;;;;;;2.60;2.08;;;;;;;1.16;49.33;97369.91;6205976;23;20467;-82
2023/04/04 02:05:01;;;;;;;3.10;2.22;;;;;;;1.14;49.22;97371.75;6205490;23;20017;-84
2023/04/04 02:07:31;;;;;;;2.50;2.10;;;;;;;1.15;49.59;97378.53;6204574;23;20040;-82
2023/04/04 02:10:00;;;;;;;2.58;2.00;;;;;;;1.17;49.36;97370.72;6206208;23;20069;-84
2023/04/04 02:12:30;;;;;;;2.10;1.70;;;;;;;1.18;49.24;97370.63;6206594;23;20005;-85
2023/04/04 02:15:00;;;;;;;3.03;1.77;;;;;;;1.17;48.99;97376.66;6207058;23;20005;-86
2023/04/04 02:17:28;;;;;;;3.83;1.70;;;;;;;1.14;49.22;97371.75;6207522;23;20017;-84
2023/04/04 02:19:56;;;;;;;2.60;1.70;;;;;;;1.10;49.32;97370.31;6204998;23;20021;-84
2023/04/04 02:22:28;;;;;;;4.70;1.73;;;;;;;1.07;49.40;97369.69;6205631;23;20394;-85
2023/04/04 02:25:04;;;;;;;5.18;2.22;;;;;;;1.05;49.33;97369.81;6207391;23;20025;-82
2023/04/04 02:27:40;;;;;;;1.83;1.65;;;;;;;1.05;49.41;97369.81;6207090;23;20035;-84
2023/04/04 02:30:16;;;;;;;5.30;1.77;;;;;;;1.06;49.37;97368.88;6209127;23;20059;-89
2023/04/04 02:32:45;;;;;;;3.13;1.70;;;;;;;1.07;49.50;97369.69;6212701;23;20024;-88
2023/04/04 02:35:16;;;;;;;3.97;1.80;;;;;;;1.08;49.34;97371.34;6214120;23;20044;-87
2023/04/04 02:37:46;;;;;;;3.20;1.75;;;;;;;1.06;49.16;97360.34;6213456;23;20005;-86
2023/04/04 02:40:15;;;;;;;2.35;1.70;;;;;;;1.02;49.40;97367.44;6212770;23;20015;-85
2023/04/04 02:42:48;;;;;;;2.65;1.70;;;;;;;1.00;49.47;97364.16;6211897;23;20028;-83
2023/04/04 02:45:17;;;;;;;2.55;1.95;;;;;;;0.97;49.30;97361.78;6211150;23;20012;-83
2023/04/04 02:47:50;;;;;;;2.58;1.80;;;;;;;0.97;49.40;97360.03;6210697;23;20017;-84
2023/04/04 02:50:19;;;;;;;3.00;1.90;;;;;;;0.98;49.42;97355.72;6210130;23;20020;-83
2023/04/04 02:52:47;;;;;;;3.67;2.22;;;;;;;0.94;49.30;97361.97;6209539;23;20012;-86
2023/04/04 02:55:20;;;;;;;2.85;1.60;;;;;;;0.90;49.68;97355.44;6209314;23;20044;-83
2023/04/04 03:00:35;;;;;;;2.97;2.00;;;;;;;0.88;49.26;97355.53;6206968;23;20032;-84
2023/04/04 03:03:06;;;;;;;2.72;2.10;;;;;;;0.86;49.22;97351.41;6207291;23;20073;-83
2023/04/04 03:05:36;;;;;;;3.53;1.98;;;;;;;0.85;49.14;97358.28;6207230;23;20043;-83
2023/04/04 03:08:04;;;;;;;3.67;2.13;;;;;;;0.83;49.14;97357.56;6206648;23;20077;-82
2023/04/04 03:10:34;;;;;;;3.65;2.38;;;;;;;0.79;49.09;97356.97;6205201;23;20017;-83
2023/04/04 03:13:09;;;;;;;2.88;2.25;;;;;;;0.76;49.02;97356.31;6204832;23;20021;-83
2023/04/04 03:15:40;;;;;;;4.10;2.10;;;;;;;0.74;49.52;97358.19;6208086;23;20020;-86
2023/04/04 03:18:19;;;;;;;4.10;2.30;;;;;;;0.71;49.27;97363.53;6213904;23;20016;-90
2023/04/04 03:20:50;;;;;;;3.38;2.33;;;;;;;0.69;49.41;97365.38;6214375;23;20020;-91
2023/04/04 03:23:23;;;;;;;5.50;2.30;;;;;;;0.69;49.82;97350.78;6214010;23;20064;-90
2023/04/04 03:26:03;;;;;;;2.40;2.20;;;;;;;0.71;50.61;97356.63;6214435;23;20020;-86
2023/04/04 03:28:32;;;;;;;5.32;2.28;;;;;;;0.71;50.41;97366.91;6214156;23;20032;-89
2023/04/04 03:31:06;;;;;;;5.68;2.17;;;;;;;0.71;50.07;97356.63;6213945;23;20031;-88
2023/04/04 03:33:49;;;;;;;5.38;2.60;;;;;;;0.67;49.91;97356.94;6214197;23;20009;-89
2023/04/04 03:36:23;;;;;;;2.80;2.30;;;;;;;0.64;50.42;97360.53;6213879;23;20021;-82
2023/04/04 03:39:03;;;;;;;2.72;1.88;;;;;;;0.62;50.15;97354.69;6213503;23;20009;-85
2023/04/04 03:44:29;;;;;;;2.58;2.38;;;;;;;0.58;50.65;97351.50;6212872;23;20017;-89
2023/04/04 03:47:02;;;;;;;3.67;2.00;;;;;;;0.55;50.96;97344.00;6210425;23;20009;-84
2023/04/04 03:49:43;;;;;;;3.53;2.60;;;;;;;0.57;50.66;97346.47;6210269;23;20016;-87
2023/04/04 03:52:19;;;;;;;4.57;2.42;;;;;;;0.60;50.86;97347.06;6209310;23;20016;-83
2023/04/04 03:55:03;;;;;;;2.90;2.40;;;;;;;0.59;51.19;97344.59;6210218;23;20464;-88
2023/04/04 03:57:37;;;;;;;6.45;2.53;;;;;;;0.57;50.76;97352.41;6209187;23;20001;-84
2023/04/04 04:00:13;;;;;;;3.33;2.50;;;;;;;0.56;51.43;97337.94;6209848;23;20021;-84
2023/04/04 04:02:56;;;;;;;2.45;2.25;;;;;;;0.58;51.09;97345.53;6207885;23;20021;-83
2023/04/04 04:05:39;;;;;;;4.78;2.40;;;;;;;0.54;50.89;97352.59;6208042;23;20021;-85
2023/04/04 04:08:12;;;;;;;3.75;2.58;;;;;;;0.50;51.00;97347.78;6208111;23;20035;-84
2023/04/04 04:10:41;;;;;;;2.75;2.28;;;;;;;0.46;50.85;97348.91;6206850;23;20029;-84
2023/04/04 04:13:12;;;;;;;3.63;2.35;;;;;;;0.40;51.18;97353.53;6205469;23;20017;-83
2023/04/04 04:15:40;;;;;;;2.63;2.33;;;;;;;0.37;51.04;97347.75;6203118;23;20013;-87
2023/04/04 04:18:23;;;;;;;3.38;2.53;;;;;;;0.32;50.97;97354.94;6202973;23;20101;-85
2023/04/04 04:21:00;;;;;;;4.88;2.75;;;;;;;0.28;51.30;97346.59;6205109;23;20481;-84
2023/04/04 04:23:31;;;;;;;4.95;2.47;;;;;;;0.27;51.17;97347.53;6194245;23;20029;-85
2023/04/04 04:25:59;;;;;;;3.38;2.85;;;;;;;0.22;51.28;97347.03;6192833;23;20101;-87
2023/04/04 04:28:29;;;;;;;2.88;2.35;;;;;;;0.18;51.01;97343.81;6198515;23;20028;-84
2023/04/04 04:31:08;;;;;;;6.20;2.50;;;;;;;0.18;50.98;97348.13;6195732;23;20017;-85
2023/04/04 04:33:37;;;;;;;4.03;2.30;;;;;;;0.14;50.86;97344.94;6198659;23;20462;-88
2023/04/04 04:36:12;;;;;;;5.80;2.53;;;;;;;0.11;51.19;97337.44;6208800;23;20070;-90
2023/04/04 04:38:44;;;;;;;2.88;2.55;;;;;;;0.12;51.24;97343.41;6211690;23;20031;-86
2023/04/04 04:41:24;;;;;;;3.00;1.92;;;;;;;0.12;51.09;97333.13;6211103;23;20017;-91
2023/04/04 04:43:52;;;;;;;4.10;2.67;;;;;;;0.09;51.28;97341.00;6209168;23;20014;-85
2023/04/04 04:46:21;;;;;;;3.90;2.55;;;;;;;0.09;51.36;97341.84;6207034;23;20020;-85
2023/04/04 04:48:51;;;;;;;4.18;2.55;;;;;;;0.11;51.67;97349.44;6208397;23;20004;-85
2023/04/04 04:51:19;;;;;;;3.42;2.60;;;;;;;0.10;51.68;97345.22;6209081;23;20072;-89
2023/04/04 04:53:47;;;;;;;2.50;2.30;;;;;;;0.10;51.41;97347.81;6191987;23;20529;-87
2023/04/04 04:56:15;;;;;;;3.92;2.22;;;;;;;0.13;51.34;97357.84;6194897;23;20068;-81
2023/04/04 04:58:43;;;;;;;5.22;3.20;;;;;;;0.13;51.18;97347.59;6189673;23;20416;-82
2023/04/04 05:01:11;;;;;;;6.35;2.92;;;;;;;0.10;51.20;97345.22;6186482;23;20025;-79
2023/04/04 05:03:39;;;;;;;3.38;2.70;;;;;;;0.08;51.19;97350.47;6187219;23;20402;-83
2023/04/04 05:06:08;;;;;;;5.15;2.92;;;;;;;0.08;51.16;97357.34;6187205;23;20021;-83
2023/04/04 05:08:36;;;;;;;3.45;2.22;;;;;;;0.09;51.38;97356.41;6184197;23;20031;-83
2023/04/04 05:11:03;;;;;;;2.85;2.50;;;;;;;0.09;51.46;97357.25;6184473;23;20104;-80
2023/04/04 05:13:32;;;;;;;4.03;2.33;;;;;;;0.10;51.17;97360.63;6183580;23;20273;-82
2023/04/04 05:15:59;;;;;;;3.85;2.60;;;;;;;0.06;51.21;97359.16;6184671;23;20017;-85
2023/04/04 05:18:27;;;;;;;5.38;2.30;;;;;;;0.05;51.50;97358.34;6186808;23;20017;-81
2023/04/04 05:20:55;;;;;;;6.22;2.60;;;;;;;0.03;51.26;97362.75;6188021;23;20021;-81
2023/04/04 05:23:24;;;;;;;3.00;2.50;;;;;;;0.01;51.29;97368.91;6189668;23;20021;-84
2023/04/04 05:25:52;;;;;;;7.88;3.10;;;;;;;-0.01;51.13;97371.56;6188901;23;20463;-83
2023/04/04 05:28:20;;;;;;;4.68;2.30;;;;;;;-0.03;51.27;97363.97;6189123;23;20052;-83
2023/04/04 05:30:47;;;;;;;3.90;2.53;;;;;;;-0.02;51.01;97375.06;6188594;23;20017;-85
2023/04/04 05:33:15;;;;;;;4.70;3.00;;;;;;;-0.02;51.32;97373.31;6188688;23;20017;-84
2023/04/04 05:35:43;;;;;;;5.05;2.97;;;;;;;-0.01;51.32;97371.56;6188717;23;20031;-86
2023/04/04 05:38:11;;;;;;;6.97;2.40;;;;;;;-0.01;51.31;97357.00;6189460;23;20017;-83
2023/04/04 05:40:40;;;;;;;2.97;2.47;;;;;;;0.01;51.65;97369.72;6188740;23;20021;-83
2023/04/04 05:43:08;;;;;;;7.25;2.80;;;;;;;0.02;51.68;97365.41;6188835;23;20025;-85
2023/04/04 05:45:36;;;;;;;5.00;2.75;;;;;;;0.04;51.18;97361.81;6189112;23;20027;-82
2023/04/04 05:48:05;;;;;;;3.72;2.35;;;;;;;0.04;51.00;97371.28;6187960;23;20049;-84
2023/04/04 05:50:33;;;;;;;3.08;2.30;;;;;;;0.03;51.10;97372.22;6188825;23;20035;-82
2023/04/04 05:53:01;;;;;;;6.43;2.47;;;;;;;0.01;51.23;97369.72;6188502;23;20021;-83
2023/04/04 05:55:29;;;;;;;8.07;2.78;;;;;;;0.03;51.00;97372.22;6190305;23;20021;-82
2023/04/04 05:57:58;;;;;;;9.18;2.55;;;;;;;0.03;51.15;97370.47;6188860;23;20037;-82
2023/04/04 06:00:25;;;;;;;3.75;2.45;;;;;;;0.08;51.24;97370.97;6188221;23;20023;-85
2023/04/04 06:02:57;;;;;;;3.95;2.92;;;;;;;0.10;50.89;97373.47;6187613;23;20443;-84
2023/04/04 06:05:25;;;;;;;4.68;2.95;;;;;;;0.09;50.58;97367.50;6191064;23;20100;-84
2023/04/04 06:07:52;;;;;;;3.03;2.58;;;;;;;0.09;50.82;97361.53;6191945;23;20217;-86
2023/04/04 06:10:20;;;;;;;5.47;2.90;;;;;;;0.15;51.04;97368.84;6193566;23;20021;-86
2023/04/04 06:12:47;;;;;;;5.45;2.92;;;;;;;0.21;50.98;97371.03;6194373;23;20021;-86
2023/04/04 06:15:17;;;;;;;7.15;3.25;;;;;;;0.25;50.75;97367.34;6194195;23;20032;-84
2023/04/04 06:17:45;;;;;;;8.10;5.82;;;;;;;0.27;50.29;97370.63;6189446;23;20028;-81
2023/04/04 06:20:12;;;;;;;5.70;3.92;;;;;;;0.31;50.56;97372.09;6189929;23;20502;-81
2023/04/04 06:22:40;;;;;;;4.90;3.10;;;;;;;0.37;50.15;97371.69;6189774;23;20335;-83
2023/04/04 06:25:09;;;;;;;5.65;3.10;;;;;;;0.40;50.23;97374.06;6192405;23;20025;-85
2023/04/04 06:27:36;;;;;;;4.18;2.60;;;;;;;0.47;50.38;97371.09;6196356;23;20025;-91
2023/04/04 06:30:05;;;;;;;7.55;3.45;;;;;;;0.52;49.99;97375.00;6193100;23;20455;-90
2023/04/04 06:32:34;;;;;;;5.07;2.80;;;;;;;0.57;49.81;97374.72;6192201;23;20029;-87
2023/04/04 06:35:03;;;;;;;5.90;3.70;;;;;;;0.63;49.51;97371.72;6193555;23;20073;-84
2023/04/04 06:37:31;;;;;;;6.22;3.63;;;;;;;0.67;49.38;97372.34;6193124;23;20093;-90
2023/04/04 06:39:58;;;;;;;4.43;2.67;;;;;;;0.70;49.24;97372.13;6193538;23;20103;-88
2023/04/04 06:42:27;;;;;;;4.80;2.40;;;;;;;0.76;49.53;97372.56;6192454;23;20028;-90
2023/04/04 06:44:54;;;;;;;5.88;3.22;;;;;;;0.83;48.90;97372.97;6193954;23;20052;-86
2023/04/04 06:47:22;;;;;;;4.15;3.05;;;;;;;0.90;48.84;97366.53;6193412;23;20025;-87
2023/04/04 06:49:51;;;;;;;6.28;2.92;;;;;;;1.00;48.70;97374.41;6193777;23;20029;-87
2023/04/04 06:52:18;;;;;;;5.28;2.45;;;;;;;1.12;48.61;97376.16;6193378;23;20067;-86
2023/04/04 06:54:46;;;;;;;3.55;2.60;;;;;;;1.22;48.13;97369.50;6194959;23;20028;-86
2023/04/04 06:57:14;;;;;;;3.33;2.50;;;;;;;1.32;47.63;97368.84;6194408;23;20035;-85
2023/04/04 06:59:41;;;;;;;4.90;2.67;;;;;;;1.40;47.36;97372.53;6193848;23;20021;-83
2023/04/04 07:02:11;;;;;;;4.10;2.40;;;;;;;1.52;47.13;97370.06;6193947;23;20071;-86
2023/04/04 07:04:40;;;;;;;3.58;2.70;;;;;;;1.62;46.97;97353.88;6193281;23;20032;-85
2023/04/04 07:07:09;;;;;;;6.15;3.20;;;;;;;1.74;46.81;97364.22;6194055;23;20034;-86
2023/04/04 07:09:37;;;;;;;7.57;2.40;;;;;;;1.88;47.05;97374.38;6194829;23;20047;-87
2023/04/04 07:12:05;;;;;;;4.43;3.30;;;;;;;2.01;46.50;97366.59;6193545;23;20027;-88
2023/04/04 07:14:33;;;;;;;3.72;2.00;;;;;;;2.14;46.42;97367.34;6194760;23;20025;-86
2023/04/04 07:17:01;;;;;;;5.40;2.55;;;;;;;2.29;46.41;97370.59;6194500;23;20031;-86
2023/04/04 07:19:43;;;;;;;;;;;;;;;2.45;44.94;97370.31;6193324;23;20017;-84
2023/04/04 07:22:13;;;;;;;3.67;2.65;;;;;;;2.57;45.50;97368.59;6193212;23;19920;-85
2023/04/04 07:24:41;;;;;;;5.82;2.78;;;;;;;2.68;45.59;97374.56;6194569;23;20021;-89
2023/04/04 07:27:10;;;;;;;5.32;2.72;;;;;;;2.81;45.61;97382.22;6193249;23;20056;-84
2023/04/04 07:29:37;;;;;;;5.20;2.28;;;;;;;2.98;45.26;97382.72;6192831;23;20328;-87
2023/04/04 07:32:05;;;;;;;6.90;2.33;;;;;;;3.11;44.33;97377.47;6192203;23;20021;-86
2023/04/04 07:34:32;;;;;;;4.40;2.78;;;;;;;3.16;44.27;97381.34;6192261;23;20031;-88
2023/04/04 07:37:00;;;;;;;3.35;2.67;;;;;;;3.27;44.06;97377.94;6192226;23;20025;-85
2023/04/04 07:39:29;;;;;;;6.50;2.53;;;;;;;3.41;44.11;97380.31;6192429;23;20021;-88
2023/04/04 07:41:56;;;;;;;5.20;2.80;;;;;;;3.54;43.51;97377.56;6191582;23;20031;-83
2023/04/04 07:44:24;;;;;;;5.30;2.40;;;;;;;3.66;43.60;97374.06;6191631;23;20032;-87
2023/04/04 07:46:52;;;;;;;6.13;2.80;;;;;;;3.83;43.59;97374.50;6190039;23;20363;-88
2023/04/04 07:49:33;;;;;;;4.75;2.75;;;;;;;4.05;43.54;97384.78;6189580;23;20092;-87
2023/04/04 07:52:00;;;;;;;3.83;2.00;;;;;;;4.24;43.15;97391.03;6186678;23;20017;-80
2023/04/04 07:54:29;;;;;;;4.53;2.15;;;;;;;4.41;42.58;97380.19;6186717;23;20354;-79
2023/04/04 07:56:57;;;;;;;3.33;2.15;;;;;;;4.59;41.63;97387.38;6186880;23;20028;-80
2023/04/04 07:59:24;;;;;;;4.60;2.10;;;;;;;4.73;41.22;97384.50;6186394;23;20021;-79
2023/04/04 08:01:54;;;;;;;4.22;2.38;;;;;;;4.87;41.34;97391.94;6186073;23;20025;-80
2023/04/04 08:04:22;;;;;;;3.22;2.17;;;;;;;5.44;40.17;97384.59;6156711;23;20025;-79
2023/04/04 08:06:50;;;;;;;5.72;2.58;;;;;;;7.37;37.01;97386.63;6156722;23;20025;-79
2023/04/04 08:09:18;;;;;;;4.70;2.08;;;;;;;9.51;33.20;97391.97;6156415;23;20040;-79
2023/04/04 08:11:47;;;;;;;2.95;2.65;;;;;;;11.05;31.45;97388.06;6156070;23;20014;-80
2023/04/04 08:14:15;;;;;;;3.83;2.83;;;;;;;12.29;28.75;97386.66;6156867;23;20021;-79
2023/04/04 08:16:42;;;;;;;2.35;1.80;;;;;;;12.98;29.23;97383.19;6156726;23;20033;-80
2023/04/04 08:19:10;;;;;;;3.85;3.13;;;;;;;13.84;27.33;97390.69;6156893;23;20459;-79
2023/04/04 08:21:38;;;;;;;4.60;2.40;;;;;;;14.37;26.31;97381.59;6156544;23;20025;-79
2023/04/04 08:24:06;;;;;;;4.15;2.65;;;;;;;14.79;25.53;97377.38;6156484;23;20021;-79
2023/04/04 08:26:34;;;;;;;5.55;2.65;;;;;;;15.13;24.92;97388.97;6156304;23;20096;-79
2023/04/04 08:29:03;;;;;;;4.00;2.58;;;;;;;15.65;24.44;97377.16;6155706;23;20018;-79
2023/04/04 08:31:31;;;;;;;6.28;2.08;;;;;;;16.04;23.67;97386.25;6155770;23;20078;-79
2023/04/04 08:34:00;;;;;;;2.58;2.30;;;;;;;16.29;24.34;97388.38;6156047;23;20100;-80
2023/04/04 08:36:29;;;;;;;4.57;2.78;;;;;;;16.75;22.83;97378.91;6156306;23;20072;-79
2023/04/04 08:38:57;;;;;;;4.53;2.40;;;;;;;17.07;22.01;97372.03;6156275;23;20104;-80
2023/04/04 08:41:25;;;;;;;3.25;2.58;;;;;;;17.24;24.06;97369.81;6155984;23;20027;-80
2023/04/04 08:43:55;;;;;;;3.53;2.25;;;;;;;17.44;22.92;97375.03;6155889;23;20392;-80
2023/04/04 08:46:25;;;;;;;3.63;2.40;;;;;;;17.42;22.88;97374.44;6155956;23;20021;-80
2023/04/04 08:48:56;;;;;;;3.15;2.50;;;;;;;17.91;21.77;97366.00;6156329;23;20021;-80
2023/04/04 08:51:26;;;;;;;2.40;2.20;;;;;;;18.00;21.88;97374.50;6155731;23;20018;-80
2023/04/04 08:53:55;;;;;;;3.45;2.05;;;;;;;17.53;22.11;97371.16;6155441;23;20013;-80
2023/04/04 08:56:23;;;;;;;4.60;2.25;;;;;;;17.99;21.51;97367.56;6155625;23;20041;-80
2023/04/04 08:58:51;;;;;;;4.47;2.33;;;;;;;18.42;20.95;97369.59;6155558;23;20028;-80
2023/04/04 09:01:19;;;;;;;3.25;2.50;;;;;;;18.16;20.65;97359.97;6156075;23;20022;-80
2023/04/04 09:03:50;;;;;;;3.55;2.30;;;;;;;16.77;21.53;97371.59;6155261;23;20030;-80
2023/04/04 09:06:19;;;;;;;3.25;2.05;;;;;;;16.82;21.58;97367.41;6155676;23;20049;-80
2023/04/04 09:08:48;;;;;;;4.65;2.30;;;;;;;15.84;21.84;97370.38;6155325;23;20022;-80
2023/04/04 09:11:18;;;;;;;3.22;2.80;;;;;;;14.54;22.92;97360.34;6155625;23;20486;-80
2023/04/04 09:13:50;;;;;;;3.90;2.70;;;;;;;13.67;23.70;97363.84;6155395;23;20081;-80
2023/04/04 09:16:18;;;;;;;2.17;1.97;;;;;;;13.29;24.86;97374.41;6156106;23;20018;-80
2023/04/04 09:18:47;;;;;;;4.78;2.60;;;;;;;13.12;24.47;97364.09;6156341;23;20243;-80
2023/04/04 09:21:20;;;;;;;5.47;3.50;;;;;;;12.77;24.42;97370.78;6155531;23;20487;-80
2023/04/04 09:23:57;;;;;;;6.57;4.20;;;;;;;12.94;24.42;97356.56;6155636;23;20510;-80
2023/04/04 09:26:26;;;;;;;3.50;2.47;;;;;;;13.11;25.05;97362.44;6155825;23;20017;-80
2023/04/04 09:28:54;;;;;;;2.50;1.90;;;;;;;13.30;25.29;97349.84;6156468;23;20022;-80
2023/04/04 09:31:24;;;;;;;5.05;2.00;;;;;;;13.70;26.47;97353.00;6155979;23;20021;-80
2023/04/04 09:33:53;;;;;;;3.72;2.30;;;;;;;13.98;26.20;97359.19;6155960;23;20025;-80
2023/04/04 09:36:23;;;;;;;2.65;2.10;;;;;;;14.06;23.88;97349.56;6155475;23;20473;-80
2023/04/04 09:38:54;;;;;;;3.20;2.30;;;;;;;13.68;23.96;97349.75;6155490;23;20014;-80
2023/04/04 09:41:22;;;;;;;3.83;2.50;;;;;;;13.09;24.60;97358.38;6155278;23;20474;-80
2023/04/04 09:43:51;;;;;;;3.17;2.30;;;;;;;12.64;25.35;97355.69;6155392;23;20025;-80
2023/04/04 09:46:20;;;;;;;3.75;2.60;;;;;;;12.32;26.46;97362.78;6155874;23;20521;-80
2023/04/04 09:48:49;;;;;;;2.60;2.38;;;;;;;12.24;26.00;97359.38;6156696;23;20021;-80
2023/04/04 09:51:17;;;;;;;4.47;2.30;;;;;;;12.28;25.76;97361.47;6155708;23;20534;-80
2023/04/04 09:53:49;;;;;;;2.42;2.13;;;;;;;12.21;25.53;97363.16;6155614;23;20013;-80
2023/04/04 09:56:17;;;;;;;2.63;2.13;;;;;;;12.11;26.14;97367.81;6164036;23;20018;-80
2023/04/04 09:58:46;;;;;;;3.22;2.28;;;;;;;11.98;26.22;97376.19;6169971;23;20017;-80
2023/04/04 10:01:30;;;;;;;3.55;2.35;;;;;;;11.85;26.41;97360.22;6162461;23;20403;-80
2023/04/04 10:03:58;;;;;;;3.50;2.10;;;;;;;11.85;26.87;97363.69;6155880;23;20025;-80
2023/04/04 10:06:26;;;;;;;3.38;2.13;;;;;;;12.08;26.76;97365.53;6155412;23;20022;-80
2023/04/04 10:08:57;;;;;;;3.53;2.25;;;;;;;12.24;26.44;97368.03;6155584;23;20049;-80
2023/04/04 10:11:30;;;;;;;3.35;1.92;;;;;;;12.31;26.09;97361.16;6154956;23;20537;-80
2023/04/04 10:14:00;;;;;;;5.95;2.63;;;;;;;12.44;26.40;97354.50;6154963;23;20053;-80
2023/04/04 10:16:31;;;;;;;3.60;2.08;;;;;;;12.54;25.65;97355.09;6154905;23;20505;-81
2023/04/04 10:19:01;;;;;;;2.97;2.25;;;;;;;12.47;25.31;97348.94;6155362;23;20520;-80
2023/04/04 10:21:30;;;;;;;4.25;2.15;;;;;;;12.29;26.04;97346.63;6154695;23;20092;-80
2023/04/04 10:24:00;;;;;;;3.78;2.05;;;;;;;12.25;26.45;97350.56;6155190;23;20026;-80
2023/04/04 10:26:28;;;;;;;2.97;2.10;;;;;;;12.25;26.60;97348.75;6154679;23;20434;-80
2023/04/04 10:28:56;;;;;;;3.53;2.25;;;;;;;12.27;26.43;97344.19;6155179;23;20100;-80
2023/04/04 10:31:26;;;;;;;3.05;2.08;;;;;;;12.28;26.80;97342.38;6155162;23;20022;-80
2023/04/04 10:34:06;;;;;;;3.72;2.35;;;;;;;12.28;25.72;97340.56;6154991;23;20072;-80
2023/04/04 10:36:44;;;;;;;3.95;2.08;;;;;;;12.15;25.62;97335.09;6155541;23;20057;-80
2023/04/04 10:39:21;;;;;;;2.55;2.00;;;;;;;11.94;26.94;97349.59;6154670;23;20511;-80
2023/04/04 10:41:51;;;;;;;4.30;2.90;;;;;;;11.91;27.13;97343.88;6155123;23;20021;-80
2023/04/04 10:44:23;;;;;;;3.55;2.25;;;;;;;12.05;27.11;97351.00;6159008;23;20052;-80
2023/04/04 10:46:54;;;;;;;3.63;2.20;;;;;;;12.19;27.18;97346.03;6176450;23;20026;-80
2023/04/04 10:49:22;;;;;;;2.67;1.98;;;;;;;12.39;27.52;97351.63;6176714;23;20057;-80
2023/04/04 10:51:51;;;;;;;3.22;1.90;;;;;;;12.63;31.79;97342.75;6170147;23;20497;-80
2023/04/04 10:54:25;;;;;;;2.75;2.20;;;;;;;12.84;27.15;97344.72;6154744;23;20563;-80
2023/04/04 10:56:55;;;;;;;2.80;2.50;;;;;;;12.87;26.29;97344.34;6155962;23;20032;-80
2023/04/04 10:59:25;;;;;;;4.22;2.50;;;;;;;12.75;26.54;97343.97;6157000;23;20025;-80
2023/04/04 11:01:56;;;;;;;3.20;2.08;;;;;;;12.61;26.39;97334.28;6156226;23;20017;-80
2023/04/04 11:04:33;;;;;;;4.85;2.65;;;;;;;12.49;26.70;97331.28;6156403;23;20025;-80
2023/04/04 11:07:11;;;;;;;3.05;2.20;;;;;;;12.40;27.34;97329.69;6156054;23;20463;-80
2023/04/04 11:09:51;;;;;;;3.08;2.30;;;;;;;12.38;26.22;97329.06;6156117;23;20482;-80
2023/04/04 11:12:30;;;;;;;4.00;2.47;;;;;;;12.18;26.25;97332.16;6156264;23;20486;-80
2023/04/04 11:15:07;;;;;;;2.80;2.50;;;;;;;11.97;26.72;97329.31;6156176;23;20028;-80
2023/04/04 11:17:42;;;;;;;3.03;1.92;;;;;;;11.85;27.11;97321.84;6156422;23;20045;-80
2023/04/04 11:20:11;;;;;;;3.25;2.22;;;;;;;11.90;30.95;97314.31;6156569;23;20017;-80
2023/04/04 11:22:41;;;;;;;4.32;2.03;;;;;;;12.08;28.42;97321.09;6155705;23;20101;-80
2023/04/04 11:25:48;;;;;;;2.83;1.95;;;;;;;12.03;26.38;97326.03;6156250;23;20057;-80
2023/04/04 11:28:44;;;;;;;2.53;2.28;;;;;;;11.77;26.66;97324.50;6146413;23;20041;-79
2023/04/04 11:31:24;;;;;;;3.45;2.45;;;;;;;11.57;27.20;97320.66;6155772;23;20021;-79
2023/04/04 11:33:55;;;;;;;2.05;1.70;;;;;;;11.39;27.73;97319.13;6155524;23;20025;-79
2023/04/04 11:36:52;;;;;;;3.47;2.40;;;;;;;11.25;28.09;97325.84;6155856;23;20021;-80
2023/04/04 11:39:25;;;;;;;3.78;2.55;;;;;;;11.04;27.32;97328.19;6156585;23;20029;-79
2023/04/04 11:41:56;;;;;;;4.53;2.38;;;;;;;10.88;28.43;97311.56;6155894;23;20024;-79
2023/04/04 11:44:29;;;;;;;3.90;2.25;;;;;;;10.98;29.10;97311.41;6156132;23;20028;-80
2023/04/04 11:47:01;;;;;;;5.13;1.95;;;;;;;11.13;29.04;97319.38;6155697;23;20022;-80
2023/04/04 11:49:30;;;;;;;2.40;2.20;;;;;;;11.23;29.00;97313.94;6156107;23;20124;-80
2023/04/04 11:51:58;;;;;;;3.15;2.33;;;;;;;11.18;28.57;97318.88;6155473;23;20100;-79
2023/04/04 11:54:26;;;;;;;3.80;1.83;;;;;;;11.11;28.65;97316.91;6155807;23;20131;-79
2023/04/04 11:56:54;;;;;;;2.67;2.20;;;;;;;11.08;28.01;97312.00;6155937;23;20018;-79
2023/04/04 11:59:22;;;;;;;2.83;2.00;;;;;;;10.94;28.25;97312.72;6155990;23;20375;-79